Townsend, Montana
Current Conditions -  °F | °C
As of 3:53 AM on Saturday 25 Oct 2014 (Local Time) from KHLN Reporting Station
Clear Clear  
Wind Chill: 40°   Ceiling: Unl
Heat Index: 40°   Visibility: 10mi
Dew Point: 36°   Wind: 0mph
Humidity: 86%   Direction: NA
Pressure: 30.04"   Gusts: NA
Location:  46.32°N, 111.52°W
Report Text: KHLN 250953Z AUTO 00000KT 10SM CLR 04/02 A3004 RMK AO2 SLP188 T00440022
Loading
Personal Weather Stations






























Interactive Weather Map
Tropical Storm Tracking
New forecast layout! Learn more

10-Day Weather Forecast

Advertisements
Track Severe Weather on mobile